createdAt,value
2022-10-24T00:01:17.797Z,96.34
2022-10-24T00:03:45.457Z,96.77
2022-10-24T00:06:13.529Z,96.89
2022-10-24T00:08:42.159Z,96.81
2022-10-24T00:11:10.457Z,97.06
2022-10-24T00:13:39.917Z,97.08
2022-10-24T00:16:08.152Z,96.92
2022-10-24T00:18:36.793Z,96.67
2022-10-24T00:21:04.397Z,96.93
2022-10-24T00:23:31.996Z,96.98
2022-10-24T00:26:01.526Z,97.15
2022-10-24T00:28:29.625Z,97.28
2022-10-24T00:30:57.775Z,96.58
2022-10-24T00:33:25.538Z,96.82
2022-10-24T00:35:54.446Z,96.52
2022-10-24T00:38:21.810Z,96.31
2022-10-24T00:40:49.428Z,95.86
2022-10-24T00:43:18.437Z,96.15
2022-10-24T00:45:48.565Z,96.42
2022-10-24T00:48:20.453Z,96.05
2022-10-24T00:50:48.953Z,95.82
2022-10-24T00:53:18.376Z,95.94
2022-10-24T00:55:47.861Z,95.61
2022-10-24T00:58:16.182Z,96.08
2022-10-24T01:00:43.614Z,95.40
2022-10-24T01:03:11.645Z,94.87
2022-10-24T01:05:50.005Z,94.84
2022-10-24T01:08:27.076Z,94.66
2022-10-24T01:10:58.717Z,94.82
2022-10-24T01:13:33.862Z,94.36
2022-10-24T01:16:06.889Z,94.34
2022-10-24T01:18:38.745Z,94.12
2022-10-24T01:21:26.905Z,93.61
2022-10-24T01:24:18.857Z,93.83
2022-10-24T01:27:00.283Z,94.14
2022-10-24T01:29:41.789Z,93.73
2022-10-24T01:32:12.770Z,93.56
2022-10-24T01:34:44.613Z,93.72
2022-10-24T01:37:15.394Z,93.82
2022-10-24T01:39:47.480Z,93.15
2022-10-24T01:42:17.593Z,93.64
2022-10-24T01:44:49.764Z,93.48
2022-10-24T01:47:20.649Z,93.33
2022-10-24T01:49:50.969Z,92.93
2022-10-24T01:52:19.552Z,92.50
2022-10-24T01:54:47.985Z,92.38
2022-10-24T01:57:15.843Z,92.29
2022-10-24T01:59:46.808Z,92.16
2022-10-24T02:02:17.656Z,92.07
2022-10-24T02:04:50.629Z,91.90
2022-10-24T02:07:19.043Z,91.45
2022-10-24T02:09:47.806Z,91.23
2022-10-24T02:12:18.069Z,90.86
2022-10-24T02:14:49.950Z,91.10
2022-10-24T02:17:18.147Z,90.41
2022-10-24T02:19:45.912Z,90.36
2022-10-24T02:22:23.549Z,89.09
2022-10-24T02:24:54.035Z,89.59
2022-10-24T02:27:24.300Z,89.56
2022-10-24T02:29:56.976Z,89.55
2022-10-24T02:32:28.341Z,89.11
2022-10-24T02:34:56.421Z,88.75
2022-10-24T02:37:25.462Z,89.04
2022-10-24T02:39:53.160Z,88.36
2022-10-24T02:42:21.002Z,88.23
2022-10-24T02:44:48.923Z,87.27
2022-10-24T02:47:19.160Z,87.40
2022-10-24T02:49:46.577Z,87.78
2022-10-24T02:52:14.396Z,87.68
2022-10-24T02:54:41.741Z,87.53
2022-10-24T02:57:09.073Z,87.18
2022-10-24T02:59:36.420Z,87.70
2022-10-24T03:02:03.845Z,87.64
2022-10-24T03:04:32.546Z,87.63
2022-10-24T03:06:59.997Z,87.96
2022-10-24T03:09:27.375Z,88.50
2022-10-24T03:11:54.731Z,88.50
2022-10-24T03:14:22.084Z,88.54
2022-10-24T03:16:49.452Z,88.63
2022-10-24T03:19:16.881Z,89.14
2022-10-24T03:21:45.541Z,89.02
2022-10-24T03:24:12.903Z,90.18
2022-10-24T03:26:40.259Z,90.63
2022-10-24T03:29:07.586Z,90.72
2022-10-24T03:31:35.045Z,91.11
2022-10-24T03:34:02.429Z,91.45
2022-10-24T03:36:29.768Z,91.71
2022-10-24T03:38:58.409Z,91.67
2022-10-24T03:41:25.753Z,92.18
2022-10-24T03:43:53.106Z,92.32
2022-10-24T03:46:20.424Z,92.83
2022-10-24T03:48:47.758Z,93.13
2022-10-24T03:51:15.426Z,92.57
2022-10-24T03:53:42.773Z,92.76
2022-10-24T03:56:11.945Z,92.32
2022-10-24T03:58:39.262Z,91.42
2022-10-24T04:01:06.791Z,91.31
2022-10-24T04:03:34.168Z,90.80
2022-10-24T04:06:01.492Z,90.34
2022-10-24T04:08:28.825Z,90.36
2022-10-24T04:10:56.161Z,90.16
2022-10-24T04:13:24.797Z,89.58
2022-10-24T04:15:52.148Z,89.17
2022-10-24T04:18:19.644Z,89.28
2022-10-24T04:20:47.029Z,88.68
2022-10-24T04:23:14.444Z,88.50
2022-10-24T04:25:41.814Z,88.59
2022-10-24T04:28:09.180Z,87.94
2022-10-24T04:30:38.212Z,88.17
2022-10-24T04:33:05.721Z,88.35
2022-10-24T04:35:33.063Z,88.30
2022-10-24T04:38:00.412Z,88.10
2022-10-24T04:40:27.901Z,88.86
2022-10-24T04:42:55.228Z,89.58
2022-10-24T04:45:22.592Z,88.73
2022-10-24T04:47:51.287Z,89.32
2022-10-24T04:50:18.621Z,89.29
2022-10-24T04:52:46.029Z,89.38
2022-10-24T04:55:13.596Z,89.42
2022-10-24T04:57:40.966Z,89.22
2022-10-24T05:00:09.394Z,89.17
2022-10-24T05:02:36.800Z,89.97
2022-10-24T05:05:06.445Z,90.16
2022-10-24T05:07:33.856Z,90.51
2022-10-24T05:10:01.204Z,90.22
2022-10-24T05:12:28.633Z,90.54
2022-10-24T05:14:55.951Z,90.68
2022-10-24T05:17:23.596Z,91.10
2022-10-24T05:19:50.974Z,90.74
2022-10-24T05:22:19.725Z,90.95
2022-10-24T05:24:47.131Z,90.44
2022-10-24T05:27:14.638Z,91.07
2022-10-24T05:29:41.942Z,90.78
2022-10-24T05:32:09.270Z,90.61
2022-10-24T05:34:36.609Z,90.07
2022-10-24T05:37:03.952Z,90.12
2022-10-24T05:39:32.657Z,90.01
2022-10-24T05:42:00.053Z,89.64
2022-10-24T05:44:27.381Z,89.74
2022-10-24T05:46:54.755Z,89.25
2022-10-24T05:49:22.372Z,88.93
2022-10-24T05:51:49.965Z,89.04
2022-10-24T05:54:17.320Z,89.44
2022-10-24T05:56:46.008Z,89.10
2022-10-24T05:59:13.457Z,89.26
2022-10-24T06:01:41.144Z,88.83
2022-10-24T06:04:11.355Z,88.26
2022-10-24T06:06:41.369Z,88.44
2022-10-24T06:09:08.792Z,88.60
2022-10-24T06:11:36.230Z,89.35
2022-10-24T06:14:05.990Z,89.51
2022-10-24T06:16:34.099Z,88.27
2022-10-24T06:19:01.558Z,88.13
2022-10-24T06:21:28.926Z,87.88
2022-10-24T06:23:56.281Z,87.67
2022-10-24T06:26:24.247Z,87.22
2022-10-24T06:28:51.713Z,87.05
2022-10-24T06:31:20.714Z,86.91
2022-10-24T06:33:48.326Z,86.95
2022-10-24T06:36:15.749Z,86.40
2022-10-24T06:38:43.065Z,86.07
2022-10-24T06:41:12.429Z,85.34
2022-10-24T06:43:41.923Z,85.11
2022-10-24T06:46:10.324Z,85.01
2022-10-24T06:48:39.050Z,83.80
2022-10-24T06:51:06.814Z,83.55
2022-10-24T06:53:34.902Z,82.00
2022-10-24T06:56:02.765Z,81.49
2022-10-24T06:58:32.365Z,80.86
2022-10-24T07:00:59.878Z,80.80
2022-10-24T07:03:27.409Z,80.74
2022-10-24T07:05:56.152Z,80.85
2022-10-24T07:08:23.546Z,80.96
2022-10-24T07:10:50.920Z,80.41
2022-10-24T07:13:18.231Z,80.24
2022-10-24T07:15:45.533Z,78.92
2022-10-24T07:18:15.734Z,78.81
2022-10-24T07:20:43.206Z,78.16
2022-10-24T07:23:11.861Z,77.71
2022-10-24T07:25:39.192Z,77.60
2022-10-24T07:28:07.038Z,78.08
2022-10-24T07:30:34.753Z,77.56
2022-10-24T07:33:02.082Z,77.00
2022-10-24T07:35:29.428Z,76.41
2022-10-24T07:37:56.813Z,76.69
2022-10-24T07:40:25.505Z,76.63
2022-10-24T07:42:52.900Z,77.96
2022-10-24T07:45:20.445Z,76.74
2022-10-24T07:47:48.372Z,77.23
2022-10-24T07:50:17.119Z,76.81
2022-10-24T07:52:44.465Z,76.41
2022-10-24T07:55:11.937Z,76.19
2022-10-24T07:57:40.608Z,76.84
2022-10-24T08:00:09.323Z,75.89
2022-10-24T08:02:42.718Z,75.55
2022-10-24T08:05:11.410Z,75.96
2022-10-24T08:07:39.106Z,75.25
2022-10-24T08:10:09.126Z,75.80
2022-10-24T08:12:36.647Z,75.92
2022-10-24T08:15:06.087Z,76.45
2022-10-24T08:17:33.446Z,76.70
2022-10-24T08:20:00.842Z,76.84
2022-10-24T08:22:28.242Z,76.29
2022-10-24T08:24:55.557Z,75.16
2022-10-24T08:27:23.102Z,76.21
2022-10-24T08:29:53.232Z,75.34
2022-10-24T08:32:22.128Z,76.84
2022-10-24T08:34:49.505Z,75.34
2022-10-24T08:37:16.836Z,73.79
2022-10-24T08:39:44.189Z,74.79
2022-10-24T08:42:14.284Z,73.25
2022-10-24T08:44:43.187Z,72.67
2022-10-24T08:47:20.659Z,71.45
2022-10-24T08:49:51.263Z,71.82
2022-10-24T08:52:25.427Z,71.58
2022-10-24T08:54:53.445Z,69.33
2022-10-24T08:57:23.646Z,68.94
2022-10-24T08:59:51.440Z,68.83
2022-10-24T09:02:21.496Z,68.87
2022-10-24T09:04:56.069Z,70.11
2022-10-24T09:09:53.654Z,71.50
2022-10-24T09:12:21.794Z,72.87
2022-10-24T09:14:54.217Z,71.81
2022-10-24T09:17:23.673Z,70.84
2022-10-24T09:19:55.831Z,72.25
2022-10-24T09:22:24.893Z,72.21
2022-10-24T09:24:55.382Z,71.28
2022-10-24T09:27:25.168Z,72.17
2022-10-24T09:29:53.194Z,70.17
2022-10-24T09:32:23.065Z,71.27
2022-10-24T09:34:51.801Z,70.38
2022-10-24T09:37:39.150Z,71.81
2022-10-24T09:40:21.554Z,71.18
2022-10-24T09:42:52.452Z,72.64
2022-10-24T09:45:30.413Z,72.35
2022-10-24T09:47:58.886Z,73.91
2022-10-24T09:50:28.401Z,71.32
2022-10-24T09:52:59.041Z,72.33
2022-10-24T09:55:28.606Z,72.55
2022-10-24T09:57:58.039Z,70.24
2022-10-24T10:00:28.392Z,73.16
2022-10-24T10:03:03.925Z,71.49
2022-10-24T10:05:43.978Z,70.64
2022-10-24T10:08:13.245Z,71.19
2022-10-24T10:10:41.410Z,73.41
2022-10-24T10:13:23.378Z,73.15
2022-10-24T10:15:53.641Z,73.19
2022-10-24T10:18:27.621Z,71.46
2022-10-24T10:21:02.863Z,72.00
2022-10-24T10:23:32.585Z,73.43
2022-10-24T10:26:06.503Z,71.41
2022-10-24T10:28:36.151Z,72.04
2022-10-24T10:31:03.997Z,72.12
2022-10-24T10:33:39.350Z,71.07
2022-10-24T10:36:11.338Z,71.99
2022-10-24T10:38:45.530Z,73.02
2022-10-24T10:41:19.691Z,71.30
2022-10-24T10:43:51.387Z,71.33
2022-10-24T10:46:24.062Z,72.97
2022-10-24T10:49:01.169Z,71.81
2022-10-24T10:51:37.898Z,72.24
2022-10-24T10:54:13.920Z,71.51
2022-10-24T10:56:46.677Z,72.26
2022-10-24T10:59:24.698Z,72.55
2022-10-24T11:01:59.060Z,76.64
2022-10-24T11:04:33.651Z,75.71
2022-10-24T11:07:06.762Z,75.45
2022-10-24T11:09:37.933Z,74.67
2022-10-24T11:12:10.995Z,73.79
2022-10-24T11:14:40.422Z,73.43
2022-10-24T11:17:12.949Z,73.99
2022-10-24T11:19:45.689Z,73.89
2022-10-24T11:22:18.035Z,72.04
2022-10-24T11:24:48.430Z,72.22
2022-10-24T11:27:21.543Z,72.98
2022-10-24T11:29:54.111Z,73.48
2022-10-24T11:32:26.518Z,72.56
2022-10-24T11:34:57.058Z,73.13
2022-10-24T11:37:28.747Z,70.29
2022-10-24T11:39:58.316Z,69.96
2022-10-24T11:42:28.501Z,70.46
2022-10-24T11:45:00.777Z,71.97
2022-10-24T11:48:04.171Z,72.51
2022-10-24T11:50:35.945Z,74.05
2022-10-24T11:53:14.523Z,72.05
2022-10-24T11:55:47.087Z,71.22
2022-10-24T11:58:16.926Z,69.53
2022-10-24T12:01:01.048Z,70.22
2022-10-24T12:03:41.709Z,69.59
2022-10-24T12:06:17.846Z,71.44
2022-10-24T12:08:57.756Z,73.49
2022-10-24T12:11:35.343Z,74.40
2022-10-24T12:14:14.537Z,74.48
2022-10-24T12:16:52.224Z,73.83
2022-10-24T12:19:21.088Z,72.47
2022-10-24T12:21:52.613Z,70.96
2022-10-24T12:24:30.056Z,70.85
2022-10-24T12:26:59.847Z,72.01
2022-10-24T12:29:28.181Z,73.64
2022-10-24T12:31:55.694Z,72.58
2022-10-24T12:34:48.889Z,72.10
2022-10-24T12:37:36.753Z,75.79
2022-10-24T12:40:55.688Z,77.54
2022-10-24T12:43:29.981Z,75.21
2022-10-24T12:46:00.029Z,77.10
2022-10-24T12:48:32.503Z,78.11
2022-10-24T12:51:05.627Z,77.10
2022-10-24T12:53:55.750Z,77.73
2022-10-24T12:56:24.425Z,78.55
2022-10-24T12:59:02.760Z,82.42
2022-10-24T13:01:34.363Z,84.55
2022-10-24T13:04:39.487Z,83.28
2022-10-24T13:07:40.341Z,82.33
2022-10-24T13:10:23.150Z,83.00
2022-10-24T13:13:05.972Z,82.08
2022-10-24T13:15:42.439Z,81.48
2022-10-24T13:18:18.462Z,80.01
2022-10-24T13:20:49.553Z,77.56
2022-10-24T13:23:19.445Z,76.32
2022-10-24T13:25:47.510Z,76.89
2022-10-24T13:28:43.304Z,77.88
2022-10-24T13:31:53.314Z,77.53
2022-10-24T13:34:25.981Z,78.17
2022-10-24T13:37:01.226Z,76.21
2022-10-24T13:39:34.297Z,76.29
2022-10-24T13:42:07.832Z,76.83
2022-10-24T13:44:43.985Z,77.55
2022-10-24T13:47:21.119Z,78.50
2022-10-24T13:49:52.898Z,78.15
2022-10-24T13:52:24.172Z,77.81
2022-10-24T13:54:56.656Z,78.86
2022-10-24T13:57:26.667Z,79.74
2022-10-24T14:00:00.410Z,78.44
2022-10-24T14:02:32.324Z,78.36
2022-10-24T14:05:00.643Z,78.25
2022-10-24T14:07:30.502Z,78.41
2022-10-24T14:10:02.721Z,78.80
2022-10-24T14:12:32.579Z,79.94
2022-10-24T14:15:02.581Z,79.82
2022-10-24T14:17:31.355Z,78.15
2022-10-24T14:20:01.163Z,78.00
2022-10-24T14:22:30.473Z,77.69
2022-10-24T14:24:57.861Z,78.19
2022-10-24T14:27:25.683Z,77.74
2022-10-24T14:29:57.260Z,77.73
2022-10-24T14:32:27.222Z,78.80
2022-10-24T14:34:55.320Z,78.61
2022-10-24T14:37:28.999Z,78.45
2022-10-24T14:39:57.043Z,80.07
2022-10-24T14:42:25.078Z,79.41
2022-10-24T14:44:57.476Z,78.09
2022-10-24T14:47:31.915Z,78.43
2022-10-24T14:50:02.287Z,77.96
2022-10-24T14:52:36.466Z,77.52
2022-10-24T14:55:06.342Z,78.23
2022-10-24T14:57:38.172Z,77.86
2022-10-24T15:00:08.271Z,77.78
2022-10-24T15:02:42.157Z,78.71
2022-10-24T15:05:27.684Z,78.44
2022-10-24T15:08:20.558Z,80.37
2022-10-24T15:10:44.822Z,80.74
2022-10-24T15:13:14.621Z,80.31
2022-10-24T15:15:51.218Z,80.93
2022-10-24T15:18:22.453Z,81.55
2022-10-24T15:20:51.830Z,81.94
2022-10-24T15:23:26.409Z,82.74
2022-10-24T15:26:02.597Z,81.82
2022-10-24T15:28:45.987Z,82.00
2022-10-24T15:31:14.561Z,82.33
2022-10-24T15:33:43.404Z,82.93
2022-10-24T15:36:18.393Z,81.88
2022-10-24T15:38:45.899Z,82.09
2022-10-24T15:41:13.301Z,81.74
2022-10-24T15:43:40.784Z,82.25
2022-10-24T15:46:08.212Z,83.45
2022-10-24T15:48:35.595Z,83.41
2022-10-24T15:51:04.862Z,82.77
2022-10-24T15:53:32.495Z,82.79
2022-10-24T15:55:59.886Z,82.44
2022-10-24T15:58:28.649Z,83.00
2022-10-24T16:00:56.101Z,83.97
2022-10-24T16:03:24.364Z,85.55
2022-10-24T16:05:53.800Z,88.72
2022-10-24T16:08:24.003Z,90.61
2022-10-24T16:10:52.742Z,92.87
2022-10-24T16:13:22.122Z,94.25
2022-10-24T16:15:50.355Z,95.33
2022-10-24T16:18:18.026Z,96.98
2022-10-24T16:20:45.434Z,98.26
2022-10-24T16:23:15.320Z,98.76
2022-10-24T16:25:44.399Z,98.70
2022-10-24T16:28:11.878Z,99.52
2022-10-24T16:30:40.805Z,100.00
2022-10-24T16:33:08.335Z,100.00
2022-10-24T16:35:37.838Z,100.00
2022-10-24T16:38:06.446Z,100.00
2022-10-24T16:40:42.040Z,100.00
2022-10-24T16:43:12.972Z,100.00
2022-10-24T16:45:40.819Z,100.00
2022-10-24T16:48:08.194Z,100.00
2022-10-24T16:50:35.846Z,100.00
2022-10-24T16:53:06.715Z,100.00
2022-10-24T16:55:34.434Z,100.00
2022-10-24T16:58:01.784Z,100.00
2022-10-24T17:00:30.601Z,100.00
2022-10-24T17:02:58.798Z,100.00
2022-10-24T17:05:27.773Z,100.00
2022-10-24T17:07:55.395Z,100.00
2022-10-24T17:10:24.771Z,100.00
2022-10-24T17:12:53.089Z,100.00
2022-10-24T17:15:22.395Z,100.00
2022-10-24T17:17:51.483Z,100.00
2022-10-24T17:20:19.077Z,100.00
2022-10-24T17:22:47.305Z,100.00
2022-10-24T17:25:19.489Z,100.00
2022-10-24T17:27:47.418Z,100.00
2022-10-24T17:30:16.461Z,100.00
2022-10-24T17:32:44.288Z,100.00
2022-10-24T17:35:16.541Z,100.00
2022-10-24T17:37:54.729Z,100.00
2022-10-24T17:40:24.219Z,100.00
2022-10-24T17:42:51.972Z,100.00
2022-10-24T17:45:21.805Z,100.00
2022-10-24T17:47:49.616Z,100.00
2022-10-24T17:50:18.925Z,100.00
2022-10-24T17:52:50.688Z,100.00
2022-10-24T17:55:40.911Z,100.00
2022-10-24T17:58:09.132Z,100.00
2022-10-24T18:00:37.060Z,100.00
2022-10-24T18:03:05.152Z,100.00
2022-10-24T18:05:37.370Z,100.00
2022-10-24T18:08:05.165Z,100.00
2022-10-24T18:10:32.717Z,100.00
2022-10-24T18:13:00.228Z,100.00
2022-10-24T18:15:29.013Z,100.00
2022-10-24T18:17:56.451Z,100.00
2022-10-24T18:20:23.798Z,100.00
2022-10-24T18:22:52.564Z,100.00
2022-10-24T18:25:22.872Z,100.00
2022-10-24T18:27:50.941Z,100.00
2022-10-24T18:30:19.328Z,100.00
2022-10-24T18:32:47.452Z,100.00
2022-10-24T18:35:16.125Z,100.00
2022-10-24T18:37:43.514Z,100.00
2022-10-24T18:40:13.777Z,100.00
2022-10-24T18:42:45.136Z,100.00
2022-10-24T18:45:14.909Z,100.00
2022-10-24T18:47:42.711Z,100.00
2022-10-24T18:50:13.913Z,100.00
2022-10-24T18:52:45.081Z,100.00
2022-10-24T18:55:18.723Z,100.00
2022-10-24T18:57:46.596Z,100.00
2022-10-24T19:00:16.502Z,100.00
2022-10-24T19:02:49.679Z,100.00
2022-10-24T19:05:21.198Z,100.00
2022-10-24T19:07:49.959Z,100.00
2022-10-24T19:10:22.298Z,100.00
2022-10-24T19:12:50.065Z,100.00
2022-10-24T19:15:18.240Z,100.00
2022-10-24T19:17:46.413Z,100.00
2022-10-24T19:20:16.149Z,100.00
2022-10-24T19:22:43.982Z,100.00
2022-10-24T19:25:11.497Z,100.00
2022-10-24T19:27:40.715Z,100.00
2022-10-24T19:30:09.365Z,100.00
2022-10-24T19:32:36.708Z,100.00
2022-10-24T19:35:04.678Z,100.00
2022-10-24T19:37:32.111Z,100.00
2022-10-24T19:39:59.457Z,100.00
2022-10-24T19:42:26.808Z,100.00
2022-10-24T19:44:56.438Z,100.00
2022-10-24T19:47:23.805Z,100.00
2022-10-24T19:49:51.169Z,100.00
2022-10-24T19:52:18.841Z,100.00
2022-10-24T19:54:46.176Z,100.00
2022-10-24T19:57:13.565Z,100.00
2022-10-24T19:59:40.870Z,100.00
2022-10-24T20:02:10.964Z,100.00
2022-10-24T20:04:40.214Z,100.00
2022-10-24T20:07:08.543Z,100.00
2022-10-24T20:09:38.201Z,100.00
2022-10-24T20:12:06.421Z,100.00
2022-10-24T20:14:33.825Z,100.00
2022-10-24T20:17:01.187Z,100.00
2022-10-24T20:19:29.892Z,100.00
2022-10-24T20:21:59.025Z,100.00
2022-10-24T20:24:30.433Z,100.00
2022-10-24T20:26:57.850Z,100.00
2022-10-24T20:29:25.248Z,100.00
2022-10-24T20:31:52.560Z,100.00
2022-10-24T20:34:20.560Z,100.00
2022-10-24T20:36:49.227Z,100.00
2022-10-24T20:39:20.648Z,100.00
2022-10-24T20:41:51.735Z,100.00
2022-10-24T20:44:21.433Z,100.00
2022-10-24T20:46:48.808Z,100.00
2022-10-24T20:49:16.160Z,100.00
2022-10-24T20:51:43.700Z,100.00
2022-10-24T20:54:12.367Z,100.00
2022-10-24T20:56:42.480Z,100.00
2022-10-24T20:59:12.881Z,100.00
2022-10-24T21:01:40.394Z,100.00
2022-10-24T21:04:07.937Z,100.00
2022-10-24T21:06:35.540Z,100.00
2022-10-24T21:09:04.687Z,100.00
2022-10-24T21:11:35.230Z,100.00
2022-10-24T21:14:04.338Z,100.00
2022-10-24T21:16:32.045Z,100.00
2022-10-24T21:18:59.710Z,100.00
2022-10-24T21:21:27.654Z,100.00
2022-10-24T21:23:59.646Z,100.00
2022-10-24T21:26:30.052Z,100.00
2022-10-24T21:29:08.657Z,100.00
2022-10-24T21:31:42.210Z,100.00
2022-10-24T21:34:09.561Z,100.00
2022-10-24T21:36:36.990Z,100.00
2022-10-24T21:39:04.725Z,100.00
2022-10-24T21:41:32.050Z,100.00
2022-10-24T21:44:00.721Z,100.00
2022-10-24T21:46:29.071Z,100.00
2022-10-24T21:48:57.244Z,100.00
2022-10-24T21:51:26.373Z,100.00
2022-10-24T21:53:55.408Z,100.00
2022-10-24T21:56:24.686Z,100.00
2022-10-24T21:58:54.298Z,100.00
2022-10-24T22:01:26.202Z,100.00
2022-10-24T22:03:54.115Z,100.00
2022-10-24T22:06:21.762Z,100.00
2022-10-24T22:08:50.073Z,100.00
2022-10-24T22:11:19.157Z,100.00
2022-10-24T22:13:48.092Z,100.00
2022-10-24T22:16:17.503Z,100.00
2022-10-24T22:18:46.422Z,100.00
2022-10-24T22:21:21.416Z,100.00
2022-10-24T22:23:48.731Z,100.00
2022-10-24T22:26:16.085Z,100.00
2022-10-24T22:28:43.424Z,100.00
2022-10-24T22:31:12.039Z,100.00
2022-10-24T22:33:40.514Z,100.00
2022-10-24T22:36:14.409Z,100.00
2022-10-24T22:38:42.355Z,100.00
2022-10-24T22:41:10.897Z,100.00
2022-10-24T22:43:38.857Z,100.00
2022-10-24T22:46:17.101Z,100.00
2022-10-24T22:48:48.120Z,100.00
2022-10-24T22:51:17.940Z,100.00
2022-10-24T22:53:45.890Z,100.00
2022-10-24T22:56:14.934Z,100.00
2022-10-24T22:58:46.512Z,100.00
2022-10-24T23:01:21.798Z,100.00
2022-10-24T23:03:59.646Z,100.00
2022-10-24T23:06:38.233Z,100.00
2022-10-24T23:09:05.582Z,100.00
2022-10-24T23:11:33.354Z,100.00
2022-10-24T23:14:01.196Z,100.00
2022-10-24T23:16:35.050Z,100.00
2022-10-24T23:19:04.934Z,100.00
2022-10-24T23:21:37.548Z,100.00
2022-10-24T23:24:06.632Z,100.00
2022-10-24T23:26:37.787Z,100.00
2022-10-24T23:29:10.122Z,100.00
2022-10-24T23:31:37.885Z,100.00
2022-10-24T23:34:05.734Z,100.00
2022-10-24T23:36:35.060Z,100.00
2022-10-24T23:39:02.991Z,100.00
2022-10-24T23:41:30.946Z,100.00
2022-10-24T23:43:58.732Z,100.00
2022-10-24T23:46:27.624Z,100.00
2022-10-24T23:49:06.823Z,100.00
2022-10-24T23:51:39.302Z,100.00
2022-10-24T23:54:09.630Z,100.00
2022-10-24T23:56:37.602Z,100.00
2022-10-24T23:59:05.411Z,100.00
